createdAt,value
2023-03-31T00:01:42.377Z,53.80
2023-03-31T00:04:09.668Z,53.70
2023-03-31T00:06:39.631Z,53.90
2023-03-31T00:09:10.944Z,53.70
2023-03-31T00:11:38.501Z,53.70
2023-03-31T00:14:05.872Z,53.70
2023-03-31T00:16:33.041Z,53.80
2023-03-31T00:18:59.783Z,53.70
2023-03-31T00:21:26.472Z,53.70
2023-03-31T00:23:56.096Z,53.70
2023-03-31T00:26:23.199Z,53.70
2023-03-31T00:28:50.406Z,53.50
2023-03-31T00:31:17.376Z,53.80
2023-03-31T00:33:44.076Z,53.80
2023-03-31T00:36:11.012Z,53.70
2023-03-31T00:38:37.744Z,54.00
2023-03-31T00:41:05.782Z,53.80
2023-03-31T00:43:34.707Z,53.90
2023-03-31T00:46:06.729Z,54.10
2023-03-31T00:48:36.180Z,54.10
2023-03-31T00:51:05.758Z,53.90
2023-03-31T00:53:34.591Z,54.00
2023-03-31T00:56:05.770Z,54.00
2023-03-31T00:58:34.102Z,54.00
2023-03-31T01:01:02.876Z,54.20
2023-03-31T01:03:31.222Z,54.00
2023-03-31T01:06:01.297Z,54.00
2023-03-31T01:08:28.587Z,54.00
2023-03-31T01:10:58.412Z,54.00
2023-03-31T01:13:26.504Z,54.10
2023-03-31T01:15:55.152Z,53.80
2023-03-31T01:18:23.037Z,54.10
2023-03-31T01:21:10.729Z,54.10
2023-03-31T01:23:57.782Z,53.80
2023-03-31T01:27:01.479Z,53.90
2023-03-31T01:29:49.673Z,53.70
2023-03-31T01:32:54.871Z,53.70
2023-03-31T01:35:48.447Z,53.70
2023-03-31T01:38:53.907Z,54.00
2023-03-31T01:41:38.246Z,53.90
2023-03-31T01:44:13.274Z,53.70
2023-03-31T01:46:48.306Z,53.70
2023-03-31T01:49:21.218Z,53.70
2023-03-31T01:51:52.951Z,54.00
2023-03-31T01:54:23.281Z,53.80
2023-03-31T01:56:57.066Z,53.50
2023-03-31T01:59:27.948Z,53.80
2023-03-31T02:01:59.701Z,53.70
2023-03-31T02:04:31.592Z,53.80
2023-03-31T02:07:03.000Z,53.80
2023-03-31T02:09:33.902Z,54.00
2023-03-31T02:12:05.554Z,54.00
2023-03-31T02:14:33.525Z,54.10
2023-03-31T02:17:03.733Z,54.60
2023-03-31T02:19:34.254Z,53.90
2023-03-31T02:22:02.789Z,54.00
2023-03-31T02:24:31.751Z,54.00
2023-03-31T02:27:05.246Z,54.30
2023-03-31T02:29:32.247Z,54.30
2023-03-31T02:32:03.628Z,54.30
2023-03-31T02:34:30.505Z,54.10
2023-03-31T02:36:57.281Z,54.20
2023-03-31T02:39:27.420Z,54.30
2023-03-31T02:41:54.712Z,54.30
2023-03-31T02:44:23.287Z,54.20
2023-03-31T02:46:50.462Z,54.00
2023-03-31T02:49:19.129Z,54.20
2023-03-31T02:52:24.548Z,54.30
2023-03-31T02:55:19.054Z,54.30
2023-03-31T02:58:10.070Z,54.40
2023-03-31T03:00:52.383Z,54.40
2023-03-31T03:03:34.063Z,54.50
2023-03-31T03:06:11.783Z,54.40
2023-03-31T03:08:49.125Z,54.50
2023-03-31T03:11:23.807Z,54.50
2023-03-31T03:13:54.930Z,54.30
2023-03-31T03:16:27.420Z,54.30
2023-03-31T03:18:58.242Z,54.20
2023-03-31T03:21:25.081Z,54.40
2023-03-31T03:23:51.815Z,54.30
2023-03-31T03:26:18.702Z,54.20
2023-03-31T03:28:45.347Z,54.20
2023-03-31T03:31:12.030Z,54.20
2023-03-31T03:33:40.339Z,54.10
2023-03-31T03:36:08.169Z,54.00
2023-03-31T03:38:35.101Z,54.20
2023-03-31T03:41:01.885Z,54.20
2023-03-31T03:43:28.697Z,54.10
2023-03-31T03:45:55.597Z,54.20
2023-03-31T03:48:22.334Z,54.00
2023-03-31T03:50:50.337Z,54.20
2023-03-31T03:53:17.053Z,54.10
2023-03-31T03:55:43.731Z,54.00
2023-03-31T03:58:10.900Z,53.80
2023-03-31T04:00:37.627Z,53.70
2023-03-31T04:03:04.338Z,54.00
2023-03-31T04:05:31.160Z,54.00
2023-03-31T04:07:59.650Z,54.00
2023-03-31T04:10:26.406Z,53.80
2023-03-31T04:12:53.163Z,54.10
2023-03-31T04:15:19.954Z,54.00
2023-03-31T04:17:46.688Z,54.00
2023-03-31T04:20:13.464Z,53.90
2023-03-31T04:22:40.429Z,54.10
2023-03-31T04:25:10.378Z,54.10
2023-03-31T04:27:37.044Z,54.40
2023-03-31T04:30:04.309Z,54.40
2023-03-31T04:32:30.985Z,54.40
2023-03-31T04:34:57.652Z,54.70
2023-03-31T04:37:24.399Z,54.40
2023-03-31T04:39:51.103Z,54.60
2023-03-31T04:42:19.453Z,54.60
2023-03-31T04:44:46.150Z,54.30
2023-03-31T04:47:12.845Z,54.70
2023-03-31T04:49:39.599Z,54.70
2023-03-31T04:52:06.356Z,54.50
2023-03-31T04:54:33.089Z,54.40
2023-03-31T04:56:59.828Z,54.60
2023-03-31T04:59:27.922Z,54.50
2023-03-31T05:01:54.748Z,54.40
2023-03-31T05:04:21.619Z,54.10
2023-03-31T05:06:48.350Z,54.10
2023-03-31T05:09:14.995Z,54.30
2023-03-31T05:11:41.762Z,54.50
2023-03-31T05:14:08.560Z,54.30
2023-03-31T05:16:36.914Z,54.40
2023-03-31T05:19:03.813Z,54.80
2023-03-31T05:21:30.633Z,54.10
2023-03-31T05:23:57.792Z,54.20
2023-03-31T05:26:25.532Z,54.20
2023-03-31T05:28:52.347Z,54.50
2023-03-31T05:31:19.776Z,54.50
2023-03-31T05:33:47.823Z,54.30
2023-03-31T05:36:16.834Z,54.40
2023-03-31T05:38:44.065Z,54.10
2023-03-31T05:41:11.279Z,54.40
2023-03-31T05:43:38.998Z,54.10
2023-03-31T05:47:10.810Z,54.40
2023-03-31T05:52:48.493Z,54.50
2023-03-31T05:55:15.598Z,54.70
2023-03-31T05:57:42.352Z,54.90
2023-03-31T06:00:10.477Z,54.40
2023-03-31T06:02:37.734Z,54.90
2023-03-31T06:05:05.170Z,55.20
2023-03-31T06:07:31.829Z,55.10
2023-03-31T06:09:59.885Z,55.30
2023-03-31T06:12:26.657Z,55.10
2023-03-31T06:14:53.300Z,55.10
2023-03-31T06:17:19.986Z,55.60
2023-03-31T06:19:46.625Z,55.80
2023-03-31T06:22:13.315Z,55.90
2023-03-31T06:24:39.966Z,55.80
2023-03-31T06:27:08.065Z,56.00
2023-03-31T06:29:34.878Z,56.20
2023-03-31T06:32:01.674Z,56.10
2023-03-31T06:34:28.646Z,56.00
2023-03-31T06:36:55.417Z,55.80
2023-03-31T06:39:22.200Z,55.90
2023-03-31T06:41:49.012Z,56.00
2023-03-31T06:44:17.331Z,55.90
2023-03-31T06:46:44.184Z,55.70
2023-03-31T06:49:10.970Z,55.60
2023-03-31T06:51:37.680Z,56.30
2023-03-31T06:54:04.442Z,55.50
2023-03-31T06:56:31.148Z,55.40
2023-03-31T06:58:57.953Z,55.20
2023-03-31T07:01:25.988Z,55.30
2023-03-31T07:03:52.676Z,55.10
2023-03-31T07:06:19.480Z,55.30
2023-03-31T07:08:46.149Z,55.20
2023-03-31T07:11:12.855Z,55.10
2023-03-31T07:13:39.575Z,55.00
2023-03-31T07:16:06.933Z,54.60
2023-03-31T07:18:35.513Z,54.70
2023-03-31T07:21:02.907Z,54.70
2023-03-31T07:23:29.665Z,54.60
2023-03-31T07:25:56.332Z,54.60
2023-03-31T07:28:22.993Z,54.50
2023-03-31T07:30:49.728Z,54.40
2023-03-31T07:33:16.467Z,55.00
2023-03-31T07:35:44.598Z,55.00
2023-03-31T07:38:12.498Z,54.90
2023-03-31T07:40:40.392Z,55.10
2023-03-31T07:43:07.649Z,54.60
2023-03-31T07:45:35.077Z,54.80
2023-03-31T07:48:01.884Z,55.10
2023-03-31T07:50:28.705Z,55.10
2023-03-31T07:52:56.753Z,55.10
2023-03-31T07:55:23.570Z,54.80
2023-03-31T07:57:50.218Z,54.60
2023-03-31T08:00:18.489Z,54.60
2023-03-31T08:02:45.249Z,54.70
2023-03-31T08:05:13.388Z,54.80
2023-03-31T08:07:42.062Z,54.90
2023-03-31T08:10:12.914Z,54.90
2023-03-31T08:12:39.710Z,55.20
2023-03-31T08:15:07.488Z,55.10
2023-03-31T08:17:34.251Z,55.10
2023-03-31T08:20:05.348Z,55.00
2023-03-31T08:22:34.951Z,55.00
2023-03-31T08:25:01.820Z,55.30
2023-03-31T08:27:33.181Z,55.10
2023-03-31T08:29:59.891Z,55.20
2023-03-31T08:32:26.653Z,55.20
2023-03-31T08:34:53.352Z,55.20
2023-03-31T08:37:20.302Z,55.10
2023-03-31T08:39:47.117Z,55.20
2023-03-31T08:42:19.337Z,55.10
2023-03-31T08:44:54.029Z,55.00
2023-03-31T08:47:24.607Z,55.10
2023-03-31T08:49:54.231Z,55.20
2023-03-31T08:52:25.196Z,55.20
2023-03-31T08:54:56.108Z,55.10
2023-03-31T08:57:26.300Z,55.20
2023-03-31T08:59:54.503Z,55.30
2023-03-31T09:02:28.548Z,55.20
2023-03-31T09:05:20.009Z,55.10
2023-03-31T09:07:56.744Z,55.10
2023-03-31T09:10:38.025Z,55.10
2023-03-31T09:13:18.082Z,55.20
2023-03-31T09:15:51.010Z,55.20
2023-03-31T09:18:27.366Z,55.20
2023-03-31T09:20:59.693Z,55.10
2023-03-31T09:23:29.289Z,55.20
2023-03-31T09:25:58.000Z,55.50
2023-03-31T09:28:30.891Z,55.70
2023-03-31T09:31:08.926Z,55.40
2023-03-31T09:33:39.891Z,55.60
2023-03-31T09:36:15.124Z,55.80
2023-03-31T09:38:44.537Z,56.20
2023-03-31T09:41:12.873Z,55.50
2023-03-31T09:43:41.183Z,55.70
2023-03-31T09:46:17.554Z,55.80
2023-03-31T09:48:52.345Z,55.30
2023-03-31T09:51:23.368Z,55.70
2023-03-31T09:53:56.408Z,55.90
2023-03-31T09:56:35.042Z,55.50
2023-03-31T09:59:03.203Z,55.40
2023-03-31T10:01:31.700Z,55.00
2023-03-31T10:03:58.517Z,55.00
2023-03-31T10:06:25.575Z,54.90
2023-03-31T10:08:55.267Z,54.60
2023-03-31T10:11:22.990Z,54.40
2023-03-31T10:13:53.106Z,53.90
2023-03-31T10:16:27.899Z,53.90
2023-03-31T10:19:11.015Z,53.90
2023-03-31T10:21:38.156Z,54.00
2023-03-31T10:24:09.269Z,54.10
2023-03-31T10:26:36.218Z,53.90
2023-03-31T10:29:11.571Z,54.10
2023-03-31T10:31:38.935Z,54.20
2023-03-31T10:34:09.298Z,54.10
2023-03-31T10:36:36.266Z,54.20
2023-03-31T10:39:06.289Z,54.00
2023-03-31T10:41:33.510Z,54.10
2023-03-31T10:44:02.310Z,54.00
2023-03-31T10:46:42.067Z,54.00
2023-03-31T10:49:16.559Z,54.20
2023-03-31T10:51:49.707Z,54.50
2023-03-31T10:54:16.479Z,54.40
2023-03-31T10:56:48.410Z,54.40
2023-03-31T10:59:35.909Z,54.50
2023-03-31T11:02:22.818Z,54.30
2023-03-31T11:05:02.416Z,54.60
2023-03-31T11:07:39.225Z,54.90
2023-03-31T11:10:53.680Z,54.90
2023-03-31T11:13:27.432Z,54.70
2023-03-31T11:16:02.620Z,55.10
2023-03-31T11:18:57.626Z,54.90
2023-03-31T11:21:32.349Z,55.00
2023-03-31T11:24:06.260Z,54.90
2023-03-31T11:26:44.915Z,55.70
2023-03-31T11:29:28.543Z,55.00
2023-03-31T11:32:04.727Z,55.00
2023-03-31T11:34:54.245Z,54.90
2023-03-31T11:37:42.641Z,54.80
2023-03-31T11:40:27.119Z,54.80
2023-03-31T11:42:59.015Z,54.80
2023-03-31T11:45:29.084Z,54.90
2023-03-31T11:48:01.994Z,54.70
2023-03-31T11:50:33.156Z,54.90
2023-03-31T11:53:06.039Z,54.90
2023-03-31T11:55:33.875Z,54.90
2023-03-31T11:58:05.567Z,54.80
2023-03-31T12:00:36.321Z,54.90
2023-03-31T12:03:10.743Z,54.70
2023-03-31T12:05:44.441Z,54.70
2023-03-31T12:08:16.357Z,54.90
2023-03-31T12:10:46.983Z,54.90
2023-03-31T12:13:34.242Z,55.10
2023-03-31T12:16:06.458Z,55.00
2023-03-31T12:18:37.921Z,54.80
2023-03-31T12:21:06.183Z,54.80
2023-03-31T12:23:41.639Z,54.90
2023-03-31T12:26:19.529Z,55.00
2023-03-31T12:28:48.382Z,54.80
2023-03-31T12:31:22.064Z,54.60
2023-03-31T12:33:55.402Z,54.80
2023-03-31T12:36:32.754Z,54.90
2023-03-31T12:39:14.191Z,54.80
2023-03-31T12:41:52.797Z,54.80
2023-03-31T12:44:37.623Z,54.80
2023-03-31T12:47:19.493Z,54.70
2023-03-31T12:50:06.278Z,54.60
2023-03-31T12:52:39.361Z,54.60
2023-03-31T12:55:31.595Z,54.60
2023-03-31T12:58:32.931Z,54.60
2023-03-31T13:01:05.172Z,54.60
2023-03-31T13:04:07.561Z,54.80
2023-03-31T13:06:55.067Z,54.60
2023-03-31T13:09:45.026Z,54.70
2023-03-31T13:12:18.403Z,54.70
2023-03-31T13:14:46.955Z,54.60
2023-03-31T13:17:30.281Z,54.80
2023-03-31T13:20:13.144Z,54.70
2023-03-31T13:22:43.234Z,54.60
2023-03-31T13:25:39.302Z,54.80
2023-03-31T13:28:25.289Z,54.90
2023-03-31T13:30:54.847Z,55.00
2023-03-31T13:33:25.610Z,55.10
2023-03-31T13:35:59.875Z,55.10
2023-03-31T13:38:37.089Z,55.10
2023-03-31T13:41:23.743Z,55.40
2023-03-31T13:44:36.027Z,55.30
2023-03-31T13:47:35.279Z,54.90
2023-03-31T13:50:43.862Z,55.20
2023-03-31T13:53:25.076Z,55.30
2023-03-31T13:56:08.266Z,55.40
2023-03-31T13:59:05.877Z,55.20
2023-03-31T14:02:29.786Z,55.10
2023-03-31T14:05:17.150Z,54.80
2023-03-31T14:07:46.313Z,55.00
2023-03-31T14:10:24.284Z,55.20
2023-03-31T14:12:50.996Z,55.20
2023-03-31T14:15:19.372Z,55.00
2023-03-31T14:17:46.222Z,55.30
2023-03-31T14:20:29.494Z,55.30
2023-03-31T14:23:09.971Z,55.40
2023-03-31T14:25:46.156Z,55.30
2023-03-31T14:28:27.530Z,55.50
2023-03-31T14:31:07.020Z,55.70
2023-03-31T14:33:42.102Z,55.70
2023-03-31T14:36:16.332Z,55.30
2023-03-31T14:38:44.649Z,55.50
2023-03-31T14:41:18.662Z,55.70
2023-03-31T14:43:49.483Z,55.80
2023-03-31T14:46:20.272Z,55.80
2023-03-31T14:48:48.213Z,56.00
2023-03-31T14:51:18.153Z,55.90
2023-03-31T14:53:45.020Z,56.10
2023-03-31T14:56:14.142Z,55.60
2023-03-31T14:58:45.375Z,55.60
2023-03-31T15:01:17.090Z,55.60
2023-03-31T15:03:45.262Z,55.50
2023-03-31T15:06:12.599Z,55.50
2023-03-31T15:08:41.015Z,55.30
2023-03-31T15:11:14.286Z,55.30
2023-03-31T15:13:46.892Z,55.10
2023-03-31T15:16:21.912Z,55.00
2023-03-31T15:18:48.707Z,55.00
2023-03-31T15:21:20.810Z,55.10
2023-03-31T15:23:51.901Z,55.00
2023-03-31T15:29:13.609Z,55.20
2023-03-31T15:31:40.618Z,55.30
2023-03-31T15:34:19.419Z,55.10
2023-03-31T15:36:46.153Z,55.30
2023-03-31T15:39:14.686Z,55.20
2023-03-31T15:41:42.347Z,55.10
2023-03-31T15:44:28.369Z,55.20
2023-03-31T15:47:02.204Z,55.30
2023-03-31T15:49:29.937Z,55.40
2023-03-31T15:51:56.817Z,55.30
2023-03-31T15:54:34.068Z,55.30
2023-03-31T15:57:01.961Z,55.50
2023-03-31T15:59:37.793Z,55.60
2023-03-31T16:02:12.370Z,55.70
2023-03-31T16:04:40.148Z,55.70
2023-03-31T16:07:14.429Z,55.70
2023-03-31T16:09:45.966Z,55.80
2023-03-31T16:12:17.649Z,55.80
2023-03-31T16:14:48.475Z,56.00
2023-03-31T16:17:22.920Z,56.00
2023-03-31T16:19:54.440Z,55.90
2023-03-31T16:22:24.794Z,55.80
2023-03-31T16:24:53.394Z,55.90
2023-03-31T16:27:20.269Z,56.00
2023-03-31T16:29:46.940Z,55.90
2023-03-31T16:32:15.101Z,56.00
2023-03-31T16:34:58.051Z,56.10
2023-03-31T16:37:25.623Z,55.70
2023-03-31T16:39:54.296Z,55.70
2023-03-31T16:42:21.100Z,55.90
2023-03-31T16:44:59.883Z,55.70
2023-03-31T16:47:35.505Z,55.90
2023-03-31T16:50:02.949Z,55.70
2023-03-31T16:52:29.621Z,55.70
2023-03-31T16:54:57.687Z,55.70
2023-03-31T16:57:24.526Z,55.90
2023-03-31T16:59:51.220Z,55.90
2023-03-31T17:02:17.948Z,55.70
2023-03-31T17:04:44.668Z,55.60
2023-03-31T17:07:11.356Z,55.80
2023-03-31T17:09:38.053Z,55.60
2023-03-31T17:12:06.297Z,55.50
2023-03-31T17:14:32.994Z,55.50
2023-03-31T17:16:59.761Z,55.60
2023-03-31T17:19:26.469Z,55.30
2023-03-31T17:21:53.132Z,55.20
2023-03-31T17:24:19.843Z,55.20
2023-03-31T17:26:46.652Z,55.00
2023-03-31T17:29:25.156Z,55.00
2023-03-31T17:31:52.161Z,55.00
2023-03-31T17:34:18.995Z,54.80
2023-03-31T17:36:45.723Z,54.70
2023-03-31T17:39:12.726Z,54.50
2023-03-31T17:41:39.436Z,54.40
2023-03-31T17:44:06.128Z,54.50
2023-03-31T17:46:35.709Z,54.30
2023-03-31T17:49:02.477Z,54.50
2023-03-31T17:51:29.233Z,54.30
2023-03-31T17:53:55.911Z,54.30
2023-03-31T17:56:22.729Z,54.10
2023-03-31T17:58:49.514Z,54.20
2023-03-31T18:01:16.363Z,54.00
2023-03-31T18:03:44.511Z,54.00
2023-03-31T18:06:13.635Z,53.90
2023-03-31T18:08:42.096Z,53.90
2023-03-31T18:11:09.604Z,54.00
2023-03-31T18:13:37.069Z,54.00
2023-03-31T18:16:04.971Z,53.90
2023-03-31T18:18:32.115Z,54.00
2023-03-31T18:21:03.436Z,54.00
2023-03-31T18:23:30.221Z,54.20
2023-03-31T18:25:56.967Z,54.20
2023-03-31T18:28:23.808Z,54.20
2023-03-31T18:30:50.515Z,54.30
2023-03-31T18:33:17.314Z,54.40
2023-03-31T18:35:44.284Z,54.30
2023-03-31T18:38:12.595Z,54.50
2023-03-31T18:40:39.670Z,54.50
2023-03-31T18:43:06.417Z,54.50
2023-03-31T18:45:33.202Z,54.40
2023-03-31T18:48:00.293Z,54.50
2023-03-31T18:50:27.052Z,54.40
2023-03-31T18:52:53.783Z,54.50
2023-03-31T18:55:22.629Z,54.50
2023-03-31T18:57:49.442Z,54.50
2023-03-31T19:00:16.779Z,54.60
2023-03-31T19:02:43.700Z,54.60
2023-03-31T19:05:10.562Z,54.50
2023-03-31T19:07:37.234Z,54.70
2023-03-31T19:10:04.541Z,54.60
2023-03-31T19:12:32.738Z,54.60
2023-03-31T19:14:59.600Z,54.80
2023-03-31T19:17:26.731Z,54.70
2023-03-31T19:19:54.250Z,54.60
2023-03-31T19:22:21.172Z,54.70
2023-03-31T19:24:47.954Z,54.40
2023-03-31T19:27:14.785Z,54.50
2023-03-31T19:29:42.908Z,54.60
2023-03-31T19:32:09.749Z,54.60
2023-03-31T19:34:36.530Z,54.80
2023-03-31T19:37:03.292Z,54.50
2023-03-31T19:39:29.993Z,54.60
2023-03-31T19:41:56.726Z,54.70
2023-03-31T19:44:23.501Z,54.70
2023-03-31T19:46:51.555Z,54.60
2023-03-31T19:49:18.301Z,54.60
2023-03-31T19:51:45.013Z,54.60
2023-03-31T19:54:12.229Z,54.60
2023-03-31T19:56:39.415Z,54.70
2023-03-31T19:59:06.375Z,54.60
2023-03-31T20:01:33.283Z,54.50
2023-03-31T20:04:01.589Z,55.30
2023-03-31T20:06:29.801Z,54.50
2023-03-31T20:08:59.186Z,54.60
2023-03-31T20:11:26.670Z,54.60
2023-03-31T20:13:54.312Z,54.70
2023-03-31T20:16:23.109Z,54.60
2023-03-31T20:18:53.366Z,54.60
2023-03-31T20:21:23.278Z,54.60
2023-03-31T20:23:50.344Z,54.90
2023-03-31T20:26:19.107Z,54.80
2023-03-31T20:28:46.585Z,54.80
2023-03-31T20:31:15.430Z,54.70
2023-03-31T20:33:43.038Z,54.60
2023-03-31T20:36:11.765Z,54.60
2023-03-31T20:38:41.723Z,54.70
2023-03-31T20:41:09.595Z,54.80
2023-03-31T20:43:36.510Z,54.70
2023-03-31T20:46:05.280Z,54.70
2023-03-31T20:48:34.366Z,54.70
2023-03-31T20:51:01.098Z,54.90
2023-03-31T20:53:28.436Z,54.80
2023-03-31T20:55:56.480Z,54.80
2023-03-31T20:58:23.177Z,54.80
2023-03-31T21:00:56.988Z,54.80
2023-03-31T21:03:25.027Z,55.00
2023-03-31T21:05:52.008Z,55.30
2023-03-31T21:08:18.737Z,55.10
2023-03-31T21:10:46.201Z,55.00
2023-03-31T21:13:15.749Z,55.10
2023-03-31T21:15:47.421Z,55.10
2023-03-31T21:18:14.143Z,55.20
2023-03-31T21:20:40.865Z,55.10
2023-03-31T21:23:07.559Z,55.30
2023-03-31T21:25:34.221Z,55.10
2023-03-31T21:28:01.022Z,55.10
2023-03-31T21:30:29.174Z,55.10
2023-03-31T21:32:55.924Z,55.00
2023-03-31T21:35:22.750Z,54.90
2023-03-31T21:37:49.482Z,55.20
2023-03-31T21:40:16.464Z,55.20
2023-03-31T21:42:43.146Z,55.10
2023-03-31T21:45:10.658Z,55.10
2023-03-31T21:47:38.746Z,55.10
2023-03-31T21:50:06.413Z,55.30
2023-03-31T21:52:33.260Z,55.20
2023-03-31T21:54:59.940Z,55.30
2023-03-31T21:57:26.711Z,55.40
2023-03-31T21:59:53.472Z,55.40
2023-03-31T22:02:20.186Z,55.30
2023-03-31T22:04:48.305Z,55.30
2023-03-31T22:07:15.032Z,55.40
2023-03-31T22:09:41.855Z,55.30
2023-03-31T22:12:08.557Z,55.60
2023-03-31T22:14:36.846Z,55.40
2023-03-31T22:17:03.893Z,55.30
2023-03-31T22:19:30.615Z,55.20
2023-03-31T22:21:58.822Z,55.30
2023-03-31T22:24:25.607Z,55.50
2023-03-31T22:26:52.246Z,55.50
2023-03-31T22:29:18.948Z,55.40
2023-03-31T22:31:45.706Z,55.20
2023-03-31T22:34:12.612Z,55.10
2023-03-31T22:36:39.381Z,55.10
2023-03-31T22:39:07.499Z,55.00
2023-03-31T22:41:34.176Z,55.20
2023-03-31T22:44:00.930Z,54.90
2023-03-31T22:46:27.691Z,55.00
2023-03-31T22:48:54.404Z,55.00
2023-03-31T22:51:21.111Z,55.10
2023-03-31T22:53:50.167Z,55.00
2023-03-31T22:56:18.933Z,55.10
2023-03-31T22:58:45.817Z,54.80
2023-03-31T23:01:14.279Z,54.80
2023-03-31T23:03:41.188Z,54.80
2023-03-31T23:06:08.887Z,55.00
2023-03-31T23:08:36.644Z,55.30
2023-03-31T23:11:05.200Z,54.90
2023-03-31T23:13:33.855Z,55.00
2023-03-31T23:16:04.443Z,54.90
2023-03-31T23:18:31.244Z,55.10
2023-03-31T23:20:57.974Z,54.90
2023-03-31T23:23:24.768Z,55.00
2023-03-31T23:25:51.672Z,55.30
2023-03-31T23:28:18.368Z,55.10
2023-03-31T23:30:53.116Z,55.10
2023-03-31T23:33:19.770Z,55.00
2023-03-31T23:35:46.591Z,55.10
2023-03-31T23:38:13.371Z,55.20
2023-03-31T23:40:40.073Z,54.90
2023-03-31T23:43:06.733Z,55.20
2023-03-31T23:45:33.651Z,55.00
2023-03-31T23:48:01.938Z,55.20
2023-03-31T23:50:28.705Z,55.30
2023-03-31T23:52:55.348Z,55.30
2023-03-31T23:55:22.090Z,55.10
2023-03-31T23:57:48.804Z,55.40
